Time;durP1;ratioP1;P1;durP2;ratioP2;P2;SDS_P1;SDS_P2;PMS_P1;PMS_P2;Temp;Humidity;BMP_temperature;BMP_pressure;BME280_temperature;BME280_humidity;BME280_pressure;Samples;Min_cycle;Max_cycle;Signal;HPM_P1;HPM_P2
2023/09/02 00:01:57;;;;;;;15.90;12.20;;;;;;;15.11;100.00;101048.38;6157871;23;20156;-86
2023/09/02 00:04:25;;;;;;;16.83;12.43;;;;;;;15.08;100.00;101047.91;6158094;23;20026;-86
2023/09/02 00:06:52;;;;;;;18.77;12.85;;;;;;;15.07;100.00;101047.09;6157689;23;20064;-87
2023/09/02 00:09:18;;;;;;;23.42;12.85;;;;;;;15.00;100.00;101053.25;6158034;23;20377;-86
2023/09/02 00:11:45;;;;;;;20.00;13.10;;;;;;;14.98;100.00;101047.31;6158356;23;20064;-86
2023/09/02 00:14:12;;;;;;;22.85;13.10;;;;;;;14.97;100.00;101043.03;6157751;23;20096;-87
2023/09/02 00:16:39;;;;;;;20.20;12.30;;;;;;;15.00;100.00;101046.16;6161567;23;20052;-87
2023/09/02 00:19:06;;;;;;;20.98;13.07;;;;;;;14.98;100.00;101042.03;6161795;23;20032;-87
2023/09/02 00:21:34;;;;;;;22.73;12.10;;;;;;;14.97;100.00;101037.78;6157583;23;20053;-87
2023/09/02 00:24:06;;;;;;;20.73;12.90;;;;;;;15.01;100.00;101039.06;6157129;23;20025;-85
2023/09/02 00:26:33;;;;;;;18.23;11.77;;;;;;;14.99;100.00;101025.25;6156967;23;20022;-86
2023/09/02 00:29:01;;;;;;;15.80;11.48;;;;;;;15.03;100.00;101034.44;6157285;23;20340;-86
2023/09/02 00:31:28;;;;;;;18.20;12.20;;;;;;;14.97;100.00;101037.78;6157231;23;20013;-86
2023/09/02 00:33:55;;;;;;;18.77;11.65;;;;;;;14.97;100.00;101037.78;6157001;23;20063;-86
2023/09/02 00:36:22;;;;;;;16.00;11.25;;;;;;;15.03;100.00;101034.44;6159422;23;20048;-87
2023/09/02 00:38:50;;;;;;;22.48;11.18;;;;;;;15.10;100.00;101033.56;6156271;23;20053;-87
2023/09/02 00:41:26;;;;;;;17.45;10.90;;;;;;;15.05;100.00;101037.72;6156367;23;20057;-87
2023/09/02 00:43:55;;;;;;;15.02;10.45;;;;;;;15.01;100.00;101052.25;6157207;23;20108;-87
2023/09/02 00:46:23;;;;;;;18.80;11.32;;;;;;;14.93;100.00;101037.28;6156829;23;20096;-86
2023/09/02 00:48:49;;;;;;;27.23;11.32;;;;;;;14.90;100.00;101033.19;6156845;23;20096;-87
2023/09/02 00:51:16;;;;;;;24.40;13.45;;;;;;;14.84;100.00;101040.97;6157164;23;20052;-86
2023/09/02 00:53:44;;;;;;;17.48;11.95;;;;;;;14.77;100.00;101030.31;6157229;23;20048;-86
2023/09/02 00:56:13;;;;;;;19.67;12.57;;;;;;;14.80;100.00;101034.41;6157005;23;20033;-86
2023/09/02 00:58:40;;;;;;;21.73;12.52;;;;;;;14.75;100.00;101028.84;6157238;23;20053;-86
2023/09/02 01:01:06;;;;;;;21.58;13.88;;;;;;;14.79;100.00;101038.84;6155747;23;20060;-85
2023/09/02 01:03:35;;;;;;;23.75;13.95;;;;;;;14.75;100.00;101036.75;6156340;23;20033;-86
2023/09/02 01:06:02;;;;;;;22.80;13.23;;;;;;;14.75;100.00;101047.28;6157231;23;20100;-86
2023/09/02 01:08:30;;;;;;;21.27;13.80;;;;;;;14.70;100.00;101033.78;6157290;23;20026;-86
2023/09/02 01:10:59;;;;;;;19.45;14.18;;;;;;;14.76;100.00;101049.72;6156203;23;20021;-86
2023/09/02 01:13:27;;;;;;;19.48;13.93;;;;;;;14.78;100.00;101058.28;6156953;23;20410;-86
2023/09/02 01:15:54;;;;;;;26.45;15.55;;;;;;;14.80;100.00;101060.75;6157161;23;20067;-84
2023/09/02 01:18:22;;;;;;;21.27;13.40;;;;;;;14.78;100.00;101063.56;6156009;23;20051;-86
2023/09/02 01:21:05;;;;;;;18.15;13.27;;;;;;;14.81;100.00;101057.94;6156930;23;20371;-88
2023/09/02 01:23:59;;;;;;;23.45;14.32;;;;;;;14.79;100.00;101072.28;6156258;23;20455;-86
2023/09/02 01:26:50;;;;;;;19.98;13.88;;;;;;;14.74;100.00;101067.53;6156816;23;20458;-86
2023/09/02 01:29:21;;;;;;;23.45;14.35;;;;;;;14.74;100.00;101069.34;6156866;23;20056;-86
2023/09/02 01:31:49;;;;;;;17.70;12.55;;;;;;;14.70;100.00;101076.75;6156666;23;20056;-86
2023/09/02 01:34:18;;;;;;;23.63;13.65;;;;;;;14.63;100.00;101077.66;6156677;23;20056;-86
2023/09/02 01:36:46;;;;;;;18.42;14.18;;;;;;;14.57;100.00;101081.78;6156390;23;20029;-86
2023/09/02 01:39:16;;;;;;;22.83;14.50;;;;;;;14.54;100.00;101074.22;6156376;23;20017;-86
2023/09/02 01:41:43;;;;;;;21.42;13.27;;;;;;;14.52;100.00;101073.56;6157046;23;20076;-86
2023/09/02 01:44:12;;;;;;;23.63;14.32;;;;;;;14.52;100.00;101079.66;6157275;23;20056;-85
2023/09/02 01:46:39;;;;;;;23.70;14.15;;;;;;;14.49;100.00;101066.00;6157142;23;20057;-86
2023/09/02 01:49:07;;;;;;;18.33;12.80;;;;;;;14.48;100.00;101081.00;6156485;23;20426;-86
2023/09/02 01:51:34;;;;;;;22.17;14.18;;;;;;;14.47;100.00;101070.63;6160591;23;20025;-86
2023/09/02 01:54:01;;;;;;;20.08;13.48;;;;;;;14.46;100.00;101085.59;6157796;23;20358;-86
2023/09/02 01:56:28;;;;;;;21.63;14.70;;;;;;;14.44;100.00;101084.13;6158868;23;20025;-86
2023/09/02 01:58:55;;;;;;;20.67;13.98;;;;;;;14.38;100.00;101087.41;6157980;23;20033;-85
2023/09/02 02:01:24;;;;;;;19.67;13.75;;;;;;;14.35;100.00;101074.59;6157856;23;20061;-86
2023/09/02 02:03:58;;;;;;;22.85;13.65;;;;;;;14.29;100.00;101081.34;6157567;23;20084;-87
2023/09/02 02:06:25;;;;;;;20.23;13.85;;;;;;;14.23;100.00;101082.84;6157053;23;20037;-87
2023/09/02 02:08:56;;;;;;;22.92;14.27;;;;;;;14.26;100.00;101084.31;6157326;23;20048;-86
2023/09/02 02:11:24;;;;;;;18.00;13.27;;;;;;;14.30;100.00;101082.97;6157657;23;20033;-86
2023/09/02 02:13:51;;;;;;;18.55;14.10;;;;;;;14.25;100.00;101083.50;6157750;23;20030;-85
2023/09/02 02:16:22;;;;;;;23.75;14.02;;;;;;;14.29;100.00;101084.78;6157715;23;20497;-85
2023/09/02 02:18:50;;;;;;;20.90;14.38;;;;;;;14.32;100.00;101085.44;6157995;23;20043;-87
2023/09/02 02:21:17;;;;;;;18.70;14.77;;;;;;;14.30;100.00;101090.88;6156987;23;20021;-85
2023/09/02 02:23:43;;;;;;;19.45;14.05;;;;;;;14.32;100.00;101094.16;6157535;23;20026;-85
2023/09/02 02:26:10;;;;;;;17.25;13.45;;;;;;;14.28;100.00;101093.69;6157133;23;20026;-85
2023/09/02 02:28:38;;;;;;;20.67;14.45;;;;;;;14.33;100.00;101087.91;6156866;23;20025;-85
2023/09/02 02:31:05;;;;;;;20.77;14.35;;;;;;;14.35;100.00;101082.47;6156891;23;20052;-86
2023/09/02 02:33:32;;;;;;;22.92;14.43;;;;;;;14.40;100.00;101082.78;6157757;23;20463;-86
2023/09/02 02:36:00;;;;;;;19.85;14.18;;;;;;;14.51;100.00;101077.19;6153620;23;20017;-81
2023/09/02 02:38:27;;;;;;;26.33;15.75;;;;;;;14.53;100.00;101080.47;6164844;23;20025;-81
2023/09/02 02:40:54;;;;;;;29.13;16.75;;;;;;;14.54;100.00;101084.75;6165130;23;20137;-81
2023/09/02 02:43:25;;;;;;;52.95;18.30;;;;;;;14.57;100.00;101087.06;6164800;23;20025;-82
2023/09/02 02:45:51;;;;;;;43.40;18.75;;;;;;;14.61;100.00;101093.63;6164843;23;20032;-81
2023/09/02 02:50:47;;;;;;;44.58;19.95;;;;;;;14.62;100.00;101099.72;6140747;23;20021;-81
2023/09/02 02:53:15;;;;;;;43.55;19.80;;;;;;;14.64;100.00;101093.28;6141035;23;20036;-81
2023/09/02 02:55:42;;;;;;;37.38;19.48;;;;;;;14.61;100.00;101093.63;6143633;23;20033;-81
2023/09/02 02:58:08;;;;;;;35.63;19.80;;;;;;;14.59;100.00;101103.50;6147193;23;20097;-82
2023/09/02 03:00:35;;;;;;;43.10;20.55;;;;;;;14.57;100.00;101108.13;6118584;23;20033;-81
2023/09/02 03:03:03;;;;;;;35.95;19.35;;;;;;;14.61;100.00;101106.78;6111967;23;20054;-80
2023/09/02 03:05:29;;;;;;;40.92;20.35;;;;;;;14.57;100.00;101102.84;6111559;23;20031;-79
2023/09/02 03:07:56;;;;;;;35.78;20.42;;;;;;;14.59;100.00;101100.88;6109700;23;20057;-80
2023/09/02 03:10:24;;;;;;;34.40;19.83;;;;;;;14.55;100.00;101102.19;6110595;23;20029;-79
2023/09/02 03:12:50;;;;;;;33.33;19.20;;;;;;;14.51;100.00;101100.91;6109584;23;20057;-78
2023/09/02 03:15:17;;;;;;;33.58;20.40;;;;;;;14.64;100.00;101103.81;6107377;23;20056;-78
2023/09/02 03:17:44;;;;;;;33.58;19.30;;;;;;;14.66;100.00;101109.69;6108179;23;20054;-81
2023/09/02 03:20:12;;;;;;;32.42;18.50;;;;;;;14.70;100.00;101105.75;6112482;23;20035;-79
2023/09/02 03:22:41;;;;;;;25.75;18.55;;;;;;;14.60;100.00;101100.69;6113007;23;20027;-80
2023/09/02 03:25:07;;;;;;;29.52;16.75;;;;;;;14.67;100.00;101113.16;6110388;23;20022;-80
2023/09/02 03:27:38;;;;;;;28.02;17.35;;;;;;;14.63;100.00;101120.63;6110187;23;20109;-81
2023/09/02 03:30:06;;;;;;;26.48;16.38;;;;;;;14.52;100.00;101120.97;6109346;23;20060;-81
2023/09/02 03:32:33;;;;;;;23.40;15.98;;;;;;;14.47;100.00;101124.13;6111735;23;20026;-81
2023/09/02 03:35:00;;;;;;;24.52;16.27;;;;;;;14.46;100.00;101121.66;6111290;23;20026;-81
2023/09/02 03:37:27;;;;;;;23.70;14.98;;;;;;;14.51;100.00;101119.34;6111719;23;20048;-80
2023/09/02 03:39:54;;;;;;;21.77;15.32;;;;;;;14.53;100.00;101125.25;6111223;23;20460;-80
2023/09/02 03:42:21;;;;;;;20.70;14.65;;;;;;;14.50;100.00;101129.03;6111020;23;20026;-81
2023/09/02 03:44:49;;;;;;;24.52;15.00;;;;;;;14.54;100.00;101134.78;6112092;23;20027;-80
2023/09/02 03:47:16;;;;;;;24.98;14.80;;;;;;;14.55;100.00;101128.53;6111317;23;20034;-80
2023/09/02 03:49:42;;;;;;;21.17;14.50;;;;;;;14.50;100.00;101123.78;6108047;23;20023;-80
2023/09/02 03:52:09;;;;;;;21.35;14.55;;;;;;;14.44;100.00;101113.09;6107707;23;20026;-80
2023/09/02 03:54:37;;;;;;;21.83;13.98;;;;;;;14.42;100.00;101120.34;6109068;23;20023;-81
2023/09/02 03:57:05;;;;;;;20.27;14.50;;;;;;;14.38;100.00;101130.34;6110028;23;20048;-81
2023/09/02 03:59:31;;;;;;;21.33;15.15;;;;;;;14.37;100.00;101120.00;6107379;23;20124;-81
2023/09/02 04:01:59;;;;;;;24.05;14.90;;;;;;;14.34;100.00;101122.97;6108178;23;20027;-79
2023/09/02 04:04:26;;;;;;;24.35;15.40;;;;;;;14.32;100.00;101122.31;6109080;23;20392;-79
2023/09/02 04:06:53;;;;;;;26.85;15.80;;;;;;;14.32;100.00;101124.94;6110291;23;20026;-82
2023/09/02 04:09:19;;;;;;;25.88;16.42;;;;;;;14.33;100.00;101116.06;6111333;23;20061;-82
2023/09/02 04:11:46;;;;;;;24.83;16.05;;;;;;;14.34;100.00;101121.16;6109738;23;20026;-81
2023/09/02 04:14:12;;;;;;;27.33;16.40;;;;;;;14.35;100.00;101116.69;6109959;23;20026;-82
2023/09/02 04:16:39;;;;;;;25.05;16.15;;;;;;;14.39;100.00;101115.38;6108644;23;20027;-82
2023/09/02 04:19:08;;;;;;;27.33;16.70;;;;;;;14.42;100.00;101115.91;6109726;23;20029;-82
2023/09/02 04:21:35;;;;;;;29.63;17.08;;;;;;;14.44;100.00;101099.94;6110416;23;20041;-82
2023/09/02 04:24:01;;;;;;;28.95;16.98;;;;;;;14.48;100.00;101112.59;6111790;23;20030;-81
2023/09/02 04:26:28;;;;;;;38.55;19.33;;;;;;;14.40;100.00;101111.75;6110935;23;20057;-82
2023/09/02 04:28:55;;;;;;;39.60;19.30;;;;;;;14.41;100.00;101118.66;6112059;23;20153;-82
2023/09/02 04:31:23;;;;;;;47.75;21.20;;;;;;;14.48;100.00;101123.13;6107248;23;20023;-81
2023/09/02 04:33:50;;;;;;;49.83;20.63;;;;;;;14.52;100.00;101131.50;6108311;23;20094;-81
2023/09/02 04:36:18;;;;;;;59.97;22.95;;;;;;;14.55;100.00;101120.63;6107445;23;20037;-80
2023/09/02 04:38:45;;;;;;;60.35;25.35;;;;;;;14.56;100.00;101132.81;6108566;23;20061;-80
2023/09/02 04:41:11;;;;;;;59.78;24.13;;;;;;;14.54;100.00;101135.63;6105715;23;20353;-83
2023/09/02 04:43:39;;;;;;;76.68;25.70;;;;;;;14.50;100.00;101136.13;6107576;23;20086;-83
2023/09/02 04:46:07;;;;;;;63.08;24.67;;;;;;;14.45;100.00;101141.06;6106513;23;20022;-82
2023/09/02 04:48:34;;;;;;;60.88;24.10;;;;;;;14.53;100.00;101143.69;6106199;23;20022;-84
2023/09/02 04:51:03;;;;;;;70.60;25.20;;;;;;;14.52;100.00;101148.13;6103775;23;20018;-80
2023/09/02 04:53:31;;;;;;;68.50;26.02;;;;;;;14.53;100.00;101148.94;6104459;23;20358;-83
2023/09/02 04:56:00;;;;;;;78.25;24.77;;;;;;;14.47;100.00;101141.72;6101976;23;20022;-81
2023/09/02 04:58:27;;;;;;;62.78;25.85;;;;;;;14.48;100.00;101151.25;6096660;23;20206;-82
2023/09/02 05:00:54;;;;;;;61.20;24.85;;;;;;;14.42;100.00;101138.78;6106382;23;20050;-82
2023/09/02 05:03:20;;;;;;;67.38;25.85;;;;;;;14.50;100.00;101138.75;6111333;23;20046;-84
2023/09/02 05:05:47;;;;;;;90.25;25.85;;;;;;;14.45;100.00;101139.25;6112004;23;20038;-81
2023/09/02 05:08:13;;;;;;;71.78;24.42;;;;;;;14.55;100.00;101139.06;6112083;23;20447;-84
2023/09/02 05:10:41;;;;;;;85.53;24.98;;;;;;;14.55;100.00;101141.69;6112447;23;20028;-83
2023/09/02 05:13:08;;;;;;;92.38;21.92;;;;;;;14.44;100.00;101134.16;6111768;23;20033;-84
2023/09/02 05:15:36;;;;;;;115.60;23.15;;;;;;;14.46;100.00;101133.00;6112065;23;20029;-83
2023/09/02 05:18:03;;;;;;;119.72;23.33;;;;;;;14.44;100.00;101139.44;6110862;23;20022;-83
2023/09/02 05:20:30;;;;;;;110.70;23.60;;;;;;;14.51;100.00;101146.47;6111939;23;20022;-85
2023/09/02 05:22:56;;;;;;;79.18;23.73;;;;;;;14.62;100.00;101150.56;6111709;23;20026;-84
2023/09/02 05:25:23;;;;;;;116.55;22.88;;;;;;;14.48;100.00;101144.19;6112167;23;20026;-83
2023/09/02 05:27:51;;;;;;;106.70;23.60;;;;;;;14.48;100.00;101154.72;6111957;23;20018;-84
2023/09/02 05:30:18;;;;;;;108.55;23.85;;;;;;;14.57;100.00;101155.53;6110914;23;20018;-84
2023/09/02 05:32:44;;;;;;;115.75;23.48;;;;;;;14.55;100.00;101165.41;6111645;23;20022;-83
2023/09/02 05:35:11;;;;;;;107.03;23.88;;;;;;;14.55;100.00;101154.88;6107867;23;20027;-83
2023/09/02 05:37:38;;;;;;;88.95;23.45;;;;;;;14.51;100.00;101135.94;6107028;23;20045;-85
2023/09/02 05:40:05;;;;;;;120.22;23.98;;;;;;;14.63;100.00;101168.03;6107780;23;20030;-83
2023/09/02 05:42:32;;;;;;;89.05;24.05;;;;;;;14.74;100.00;101170.25;6110906;23;20042;-85
2023/09/02 05:45:00;;;;;;;121.18;23.75;;;;;;;14.63;100.00;101173.28;6112608;23;20026;-86
2023/09/02 05:47:27;;;;;;;97.65;24.13;;;;;;;14.63;100.00;101178.56;6113813;23;20026;-84
2023/09/02 05:49:53;;;;;;;77.25;22.88;;;;;;;14.75;100.00;101179.81;6114184;23;20054;-84
2023/09/02 05:52:20;;;;;;;74.28;22.73;;;;;;;14.89;100.00;101184.38;6114770;23;20022;-83
2023/09/02 05:54:46;;;;;;;117.57;23.52;;;;;;;14.76;100.00;101178.81;6113496;23;20035;-81
2023/09/02 05:57:13;;;;;;;94.30;23.15;;;;;;;14.78;100.00;101183.91;6113402;23;20034;-82
2023/09/02 05:59:40;;;;;;;112.65;23.98;;;;;;;14.74;100.00;101180.81;6113869;23;20033;-81
2023/09/02 06:02:08;;;;;;;89.78;24.63;;;;;;;14.75;100.00;101184.25;6114128;23;20030;-80
2023/09/02 06:04:34;;;;;;;88.50;25.35;;;;;;;14.80;100.00;101181.94;6114467;23;20038;-79
2023/09/02 06:07:01;;;;;;;82.38;25.45;;;;;;;14.82;100.00;101193.13;6118847;23;20027;-83
2023/09/02 06:09:29;;;;;;;66.80;24.58;;;;;;;14.99;100.00;101178.09;6119385;23;20032;-83
2023/09/02 06:11:56;;;;;;;76.03;24.45;;;;;;;14.87;100.00;101185.53;6118701;23;20011;-82
2023/09/02 06:14:23;;;;;;;75.80;25.60;;;;;;;14.85;100.00;101179.63;6114169;23;20022;-78
2023/09/02 06:16:51;;;;;;;75.43;25.75;;;;;;;14.89;100.00;101192.28;6114511;23;20026;-82
2023/09/02 06:19:19;;;;;;;70.55;25.38;;;;;;;15.13;100.00;101187.88;6113024;23;20029;-82
2023/09/02 06:21:46;;;;;;;66.45;25.90;;;;;;;14.98;100.00;101205.44;6113301;23;20029;-82
2023/09/02 06:24:13;;;;;;;64.55;24.90;;;;;;;14.98;100.00;101200.97;6112769;23;20070;-83
2023/09/02 06:26:39;;;;;;;54.80;25.63;;;;;;;15.07;100.00;101202.59;6112810;23;20026;-82
2023/09/02 06:29:06;;;;;;;59.00;24.75;;;;;;;15.05;100.00;101201.13;6111112;23;20026;-82
2023/09/02 06:31:32;;;;;;;60.17;24.63;;;;;;;15.19;100.00;101197.75;6110736;23;20026;-83
2023/09/02 06:33:59;;;;;;;53.03;25.70;;;;;;;15.35;100.00;101208.22;6110925;23;20026;-83
2023/09/02 06:36:27;;;;;;;68.25;24.48;;;;;;;15.23;100.00;101197.22;6111037;23;20026;-82
2023/09/02 06:38:55;;;;;;;53.47;24.17;;;;;;;15.21;100.00;101204.50;6111353;23;20455;-82
2023/09/02 06:41:21;;;;;;;50.40;24.23;;;;;;;15.28;100.00;101215.16;6111604;23;20030;-82
2023/09/02 06:43:48;;;;;;;48.17;24.27;;;;;;;15.56;100.00;101226.94;6112670;23;20037;-82
2023/09/02 06:46:16;;;;;;;47.00;25.02;;;;;;;15.64;100.00;101223.41;6112181;23;20027;-82
2023/09/02 06:48:43;;;;;;;49.45;26.20;;;;;;;15.61;100.00;101221.09;6110794;23;20033;-83
2023/09/02 06:51:10;;;;;;;46.28;24.90;;;;;;;15.63;100.00;101223.56;6112034;23;20052;-83
2023/09/02 06:53:38;;;;;;;46.33;24.63;;;;;;;15.69;100.00;101230.78;6109105;23;20435;-81
2023/09/02 06:56:07;;;;;;;44.10;25.02;;;;;;;16.05;100.00;101236.34;6106256;23;20057;-81
2023/09/02 06:58:33;;;;;;;48.63;25.52;;;;;;;16.10;100.00;101244.50;6104731;23;20471;-81
2023/09/02 07:01:00;;;;;;;43.55;26.35;;;;;;;15.82;100.00;101237.13;6104962;23;20023;-80
2023/09/02 07:03:26;;;;;;;46.92;25.83;;;;;;;15.92;100.00;101227.19;6105694;23;20027;-81
2023/09/02 07:05:53;;;;;;;41.90;24.77;;;;;;;16.24;100.00;101244.56;6105544;23;20054;-80
2023/09/02 07:08:20;;;;;;;40.03;23.88;;;;;;;16.37;100.00;101249.25;6100964;23;20106;-79
2023/09/02 07:10:48;;;;;;;39.08;24.10;;;;;;;16.13;100.00;101244.97;6105681;23;20018;-80
2023/09/02 07:13:15;;;;;;;37.58;24.20;;;;;;;16.36;100.00;101255.53;6104982;23;20046;-80
2023/09/02 07:15:41;;;;;;;41.33;25.77;;;;;;;16.07;100.00;101245.69;6104046;23;20041;-80
2023/09/02 07:18:08;;;;;;;43.08;25.00;;;;;;;16.17;100.00;101256.00;6106245;23;20078;-80
2023/09/02 07:20:37;;;;;;;41.90;25.02;;;;;;;16.20;100.00;101261.75;6104458;23;20053;-80
2023/09/02 07:23:04;;;;;;;40.80;27.05;;;;;;;16.42;100.00;101257.47;6106203;23;20058;-81
2023/09/02 07:25:31;;;;;;;35.53;24.20;;;;;;;16.71;100.00;101264.63;6111228;23;20037;-81
2023/09/02 07:27:59;;;;;;;37.85;23.23;;;;;;;16.73;100.00;101267.09;6111224;23;20026;-80
2023/09/02 07:30:25;;;;;;;43.53;26.05;;;;;;;16.38;100.00;101273.84;6111600;23;20452;-81
2023/09/02 07:32:52;;;;;;;37.15;24.20;;;;;;;16.31;100.00;101281.66;6111365;23;20026;-80
2023/09/02 07:35:18;;;;;;;39.88;23.95;;;;;;;16.34;100.00;101285.75;6109394;23;20507;-82
2023/09/02 07:38:07;;;;;;;42.53;26.10;;;;;;;16.38;100.00;101293.16;6111598;23;20033;-82
2023/09/02 07:40:36;;;;;;;42.08;24.95;;;;;;;16.97;100.00;101298.59;6111324;23;20049;-82
2023/09/02 07:43:09;;;;;;;37.40;24.60;;;;;;;17.31;100.00;101292.72;6107482;23;20359;-82
2023/09/02 07:45:36;;;;;;;40.05;26.13;;;;;;;17.52;100.00;101287.47;6106935;23;20105;-81
2023/09/02 07:48:03;;;;;;;36.60;25.02;;;;;;;17.65;100.00;101307.16;6106001;23;20034;-81
2023/09/02 07:50:29;;;;;;;36.85;23.58;;;;;;;17.33;100.00;101301.31;6105593;23;20069;-82
2023/09/02 07:52:56;;;;;;;33.38;22.75;;;;;;;17.31;100.00;101303.31;6104159;23;20094;-80
2023/09/02 07:55:24;;;;;;;34.15;23.40;;;;;;;17.53;100.00;101307.66;6102594;23;20033;-80
2023/09/02 07:57:51;;;;;;;35.05;24.67;;;;;;;17.59;100.00;101306.91;6102544;23;20030;-80
2023/09/02 08:00:20;;;;;;;35.13;22.75;;;;;;;18.09;100.00;101299.94;6100866;23;20088;-81
2023/09/02 08:02:47;;;;;;;34.72;23.10;;;;;;;18.15;100.00;101293.88;6106988;23;20045;-82
2023/09/02 08:05:14;;;;;;;33.88;24.48;;;;;;;18.57;100.00;101294.84;6109864;23;20045;-82
2023/09/02 08:07:40;;;;;;;35.40;23.27;;;;;;;18.48;100.00;101298.66;6105033;23;20403;-80
2023/09/02 08:10:08;;;;;;;31.85;23.38;;;;;;;18.48;100.00;101296.00;6101783;23;20407;-79
2023/09/02 08:12:34;;;;;;;31.88;22.25;;;;;;;18.46;100.00;101292.72;6101900;23;20471;-80
2023/09/02 08:15:01;;;;;;;36.35;21.92;;;;;;;19.13;100.00;101295.66;6103034;23;20038;-81
2023/09/02 08:17:29;;;;;;;29.08;21.98;;;;;;;19.44;100.00;101281.09;6105230;23;20022;-79
2023/09/02 08:19:56;;;;;;;26.25;20.30;;;;;;;19.43;100.00;101274.97;6103271;23;20053;-81
2023/09/02 08:22:22;;;;;;;24.45;19.33;;;;;;;19.74;100.00;101271.03;6104512;23;20037;-83
2023/09/02 08:24:49;;;;;;;26.98;20.35;;;;;;;20.09;100.00;101261.91;6106544;23;20058;-80
2023/09/02 08:27:18;;;;;;;26.10;19.50;;;;;;;20.87;96.97;101273.50;6106463;23;20053;-83
2023/09/02 08:29:44;;;;;;;20.30;15.80;;;;;;;20.66;94.59;101268.47;6107830;23;20022;-82
2023/09/02 08:32:11;;;;;;;25.17;16.50;;;;;;;21.25;92.91;101264.03;6109786;23;20018;-81
2023/09/02 08:34:40;;;;;;;22.65;14.90;;;;;;;21.40;91.48;101262.72;6108696;23;20065;-83
2023/09/02 08:37:07;;;;;;;17.73;14.65;;;;;;;21.95;90.16;101254.22;6106813;23;20073;-82
2023/09/02 08:39:34;;;;;;;19.08;15.57;;;;;;;21.96;88.46;101262.00;6108913;23;20022;-83
2023/09/02 08:42:24;;;;;;;21.25;16.33;;;;;;;22.13;87.21;101247.16;6107917;23;20022;-84
2023/09/02 08:45:31;;;;;;;19.55;15.60;;;;;;;21.79;88.99;101288.31;6109190;23;20033;-81
2023/09/02 08:48:40;;;;;;;18.67;14.63;;;;;;;22.38;86.57;101264.97;6106063;23;20054;-83
2023/09/02 08:51:37;;;;;;;15.05;11.90;;;;;;;22.45;85.90;101255.06;6097684;23;20026;-83
2023/09/02 08:54:04;;;;;;;16.05;14.20;;;;;;;22.40;85.39;101269.06;6104286;23;20026;-82
2023/09/02 08:56:31;;;;;;;19.05;13.82;;;;;;;22.70;85.33;101242.50;6104554;23;20058;-83
2023/09/02 08:59:09;;;;;;;16.33;12.63;;;;;;;23.59;86.13;101280.34;6106495;23;20030;-81
2023/09/02 09:01:44;;;;;;;18.33;13.48;;;;;;;23.48;83.54;101261.34;6108626;23;20022;-79
2023/09/02 09:04:13;;;;;;;19.58;15.35;;;;;;;23.06;84.33;101272.97;6107360;23;20028;-82
2023/09/02 09:06:45;;;;;;;16.17;13.15;;;;;;;23.64;84.43;101275.94;6104875;23;20082;-82
2023/09/02 09:09:15;;;;;;;15.32;12.93;;;;;;;23.78;81.49;101231.94;6106288;23;20036;-82
2023/09/02 09:11:47;;;;;;;15.30;12.20;;;;;;;23.97;81.59;101248.75;6105649;23;20022;-81
2023/09/02 09:14:21;;;;;;;14.05;10.93;;;;;;;23.57;82.36;101274.41;6104544;23;20027;-81
2023/09/02 09:17:00;;;;;;;14.40;10.93;;;;;;;23.83;83.30;101279.38;6106013;23;20030;-82
2023/09/02 09:19:27;;;;;;;10.68;8.70;;;;;;;23.68;82.59;101245.03;6105532;23;20026;-82
2023/09/02 09:21:57;;;;;;;9.52;8.52;;;;;;;23.73;82.11;101263.06;6106421;23;20025;-82
2023/09/02 09:24:24;;;;;;;9.65;8.30;;;;;;;23.88;81.33;101225.25;6105127;23;20058;-80
2023/09/02 09:26:52;;;;;;;13.90;10.10;;;;;;;23.24;83.00;101267.59;6108804;23;20022;-82
2023/09/02 09:29:22;;;;;;;10.93;8.25;;;;;;;23.66;81.56;101244.44;6106659;23;20027;-80
2023/09/02 09:31:49;;;;;;;10.55;8.25;;;;;;;23.76;83.16;101266.09;6107533;23;20030;-83
2023/09/02 09:34:16;;;;;;;9.35;8.10;;;;;;;24.12;82.32;101246.41;6106077;23;20622;-82
2023/09/02 09:37:01;;;;;;;9.73;8.13;;;;;;;23.89;81.73;101262.44;6105314;23;20058;-82
2023/09/02 09:39:42;;;;;;;8.70;6.55;;;;;;;24.00;83.03;101234.91;6107213;23;20052;-80
2023/09/02 09:42:17;;;;;;;10.38;8.45;;;;;;;23.12;83.08;101256.88;6107918;23;20046;-83
2023/09/02 09:44:53;;;;;;;9.60;7.97;;;;;;;23.16;84.32;101282.06;6109937;23;20030;-81
2023/09/02 09:47:23;;;;;;;11.32;7.40;;;;;;;22.83;84.50;101258.41;6109608;23;20022;-81
2023/09/02 09:49:50;;;;;;;10.52;7.57;;;;;;;22.79;84.64;101249.22;6108538;23;20121;-79
2023/09/02 09:52:29;;;;;;;9.80;7.28;;;;;;;23.00;85.59;101269.31;6110308;23;20073;-78
2023/09/02 09:54:56;;;;;;;11.25;7.47;;;;;;;22.29;85.75;101237.78;6109459;23;20026;-82
2023/09/02 09:57:35;;;;;;;8.60;6.57;;;;;;;22.72;86.50;101261.78;6109514;23;20030;-80
2023/09/02 10:00:02;;;;;;;7.57;5.80;;;;;;;22.22;85.91;101238.84;6109465;23;20022;-81
2023/09/02 10:02:29;;;;;;;8.85;6.05;;;;;;;22.63;85.08;101263.13;6110401;23;20033;-82
2023/09/02 10:05:08;;;;;;;8.77;5.80;;;;;;;23.51;84.72;101276.09;6107719;23;20046;-82
2023/09/02 10:07:38;;;;;;;9.05;5.72;;;;;;;23.77;83.74;101246.34;6105827;23;20027;-79
2023/09/02 10:10:06;;;;;;;7.88;5.32;;;;;;;24.21;82.21;101280.84;6102381;23;20109;-79
2023/09/02 10:12:36;;;;;;;9.40;5.63;;;;;;;23.43;81.67;101250.50;6104915;23;20034;-81
2023/09/02 10:15:05;;;;;;;7.88;5.72;;;;;;;23.20;82.55;101285.09;6105554;23;20040;-80
2023/09/02 10:17:33;;;;;;;8.15;5.90;;;;;;;23.55;84.82;101279.16;6104998;23;20027;-81
2023/09/02 10:20:24;;;;;;;7.10;5.50;;;;;;;24.01;84.46;101303.38;6109839;23;20026;-82
2023/09/02 10:22:54;;;;;;;7.63;5.20;;;;;;;24.37;82.83;101274.84;6109170;23;20022;-82
2023/09/02 10:25:25;;;;;;;7.53;5.15;;;;;;;24.79;79.67;101288.94;6108443;23;20046;-81
2023/09/02 10:28:03;;;;;;;7.53;4.35;;;;;;;24.67;78.78;101288.94;6106826;23;20046;-82
2023/09/02 10:30:35;;;;;;;6.82;4.63;;;;;;;24.63;79.97;101309.16;6107982;23;20057;-81
2023/09/02 10:33:12;;;;;;;8.23;5.82;;;;;;;25.04;80.66;101307.44;6110013;23;20027;-82
2023/09/02 10:35:44;;;;;;;7.28;5.47;;;;;;;25.01;78.49;101286.50;6110798;23;20058;-79
2023/09/02 10:38:21;;;;;;;8.45;5.07;;;;;;;24.98;79.04;101292.31;6112309;23;20053;-81
2023/09/02 10:40:56;;;;;;;6.78;5.00;;;;;;;25.03;78.65;101295.13;6109758;23;20033;-82
2023/09/02 10:43:25;;;;;;;5.78;4.65;;;;;;;25.22;78.77;101299.25;6111601;23;20046;-81
2023/09/02 10:45:52;;;;;;;6.60;4.88;;;;;;;24.90;78.25;101289.97;6109692;23;20022;-82
2023/09/02 10:48:20;;;;;;;7.43;5.80;;;;;;;23.84;80.86;101297.03;6110916;23;20044;-81
2023/09/02 10:50:47;;;;;;;11.32;5.65;;;;;;;24.09;80.49;101305.72;6110162;23;20023;-81
2023/09/02 10:53:16;;;;;;;7.97;5.93;;;;;;;24.39;79.06;101256.72;6110909;23;20085;-81
2023/09/02 10:56:05;;;;;;;6.93;5.30;;;;;;;24.73;79.14;101284.50;6110498;23;20420;-81
2023/09/02 10:58:47;;;;;;;8.43;5.40;;;;;;;24.74;80.29;101281.59;6111368;23;20409;-81
2023/09/02 11:01:13;;;;;;;7.97;4.97;;;;;;;25.40;78.18;101264.25;6113308;23;20031;-81
2023/09/02 11:03:45;;;;;;;8.48;5.13;;;;;;;25.54;75.40;101250.56;6111935;23;20247;-79
2023/09/02 11:06:14;;;;;;;5.45;4.72;;;;;;;25.13;74.96;101252.47;6109663;23;20033;-81
2023/09/02 11:08:46;;;;;;;6.20;4.07;;;;;;;25.19;75.72;101267.59;6110550;23;20026;-81
2023/09/02 11:11:13;;;;;;;6.23;4.10;;;;;;;24.92;73.74;101228.97;6112677;23;20022;-83
2023/09/02 11:14:17;;;;;;;6.28;4.30;;;;;;;25.19;74.96;101262.22;6112651;23;20023;-82
2023/09/02 11:16:44;;;;;;;8.40;5.10;;;;;;;25.34;75.28;101262.53;6112013;23;20031;-82